AirportLTBA
Updated 04:50 UTC
Current time 05:20 UTC
Taken 30 min. ago
Wind 50° / 4 m/s (07 KT)
Visibility 10 km
Conditions light rain Showers
Clouds broken
Temp. 23°C (73°F)
Dew point 19°C (66°F)
Humidity 78%
Pressure 1014 hPa (29.94 in Hg)
Full Metar Code:
LTBA 260450Z 05007KT 9999 -SHRA FEW013 SCT025 BKN100 23/19 Q1014 NOSIG